sensor_id;sensor_type;location;lat;lon;timestamp;temperature;humidity
8910;DHT22;4490;49.072;8.804;2023-11-21T00:01:01;10.20;99.90
8910;DHT22;4490;49.072;8.804;2023-11-21T00:03:29;10.20;99.90
8910;DHT22;4490;49.072;8.804;2023-11-21T00:05:55;10.20;99.90
8910;DHT22;4490;49.072;8.804;2023-11-21T00:08:21;10.20;99.90
8910;DHT22;4490;49.072;8.804;2023-11-21T00:10:46;10.20;99.90
8910;DHT22;4490;49.072;8.804;2023-11-21T00:13:12;10.20;99.90
8910;DHT22;4490;49.072;8.804;2023-11-21T00:15:38;10.20;99.90
8910;DHT22;4490;49.072;8.804;2023-11-21T00:18:03;10.20;99.90
8910;DHT22;4490;49.072;8.804;2023-11-21T00:20:29;10.20;99.90
8910;DHT22;4490;49.072;8.804;2023-11-21T00:22:54;10.20;99.90
8910;DHT22;4490;49.072;8.804;2023-11-21T00:25:20;10.20;99.90
8910;DHT22;4490;49.072;8.804;2023-11-21T00:27:45;10.20;99.90
8910;DHT22;4490;49.072;8.804;2023-11-21T00:30:12;10.20;99.90
8910;DHT22;4490;49.072;8.804;2023-11-21T00:32:38;10.20;99.90
8910;DHT22;4490;49.072;8.804;2023-11-21T00:35:04;10.20;99.90
8910;DHT22;4490;49.072;8.804;2023-11-21T00:37:30;10.10;99.90
8910;DHT22;4490;49.072;8.804;2023-11-21T00:39:57;10.20;99.90
8910;DHT22;4490;49.072;8.804;2023-11-21T00:42:23;10.20;99.90
8910;DHT22;4490;49.072;8.804;2023-11-21T00:44:49;10.20;99.90
8910;DHT22;4490;49.072;8.804;2023-11-21T00:47:14;10.20;99.90
8910;DHT22;4490;49.072;8.804;2023-11-21T00:49:40;10.20;99.90
8910;DHT22;4490;49.072;8.804;2023-11-21T00:52:06;10.20;99.90
8910;DHT22;4490;49.072;8.804;2023-11-21T00:54:32;10.20;99.90
8910;DHT22;4490;49.072;8.804;2023-11-21T00:56:59;10.20;99.90
8910;DHT22;4490;49.072;8.804;2023-11-21T00:59:24;10.30;99.90
8910;DHT22;4490;49.072;8.804;2023-11-21T01:01:50;10.30;99.90
8910;DHT22;4490;49.072;8.804;2023-11-21T01:04:15;10.30;99.90
8910;DHT22;4490;49.072;8.804;2023-11-21T01:06:41;10.30;99.90
8910;DHT22;4490;49.072;8.804;2023-11-21T01:09:07;10.30;99.90
8910;DHT22;4490;49.072;8.804;2023-11-21T01:11:36;10.30;99.90
8910;DHT22;4490;49.072;8.804;2023-11-21T01:14:05;10.30;99.90
8910;DHT22;4490;49.072;8.804;2023-11-21T01:16:31;10.40;99.90
8910;DHT22;4490;49.072;8.804;2023-11-21T01:19:00;10.40;99.90
8910;DHT22;4490;49.072;8.804;2023-11-21T01:21:26;10.40;99.90
8910;DHT22;4490;49.072;8.804;2023-11-21T01:23:53;10.40;99.90
8910;DHT22;4490;49.072;8.804;2023-11-21T01:26:20;10.40;99.90
8910;DHT22;4490;49.072;8.804;2023-11-21T01:28:46;10.40;99.90
8910;DHT22;4490;49.072;8.804;2023-11-21T01:31:14;10.40;99.90
8910;DHT22;4490;49.072;8.804;2023-11-21T01:33:40;10.40;99.90
8910;DHT22;4490;49.072;8.804;2023-11-21T01:36:06;10.40;99.90
8910;DHT22;4490;49.072;8.804;2023-11-21T01:38:32;10.40;99.90
8910;DHT22;4490;49.072;8.804;2023-11-21T01:40:57;10.40;99.90
8910;DHT22;4490;49.072;8.804;2023-11-21T01:43:28;10.50;99.90
8910;DHT22;4490;49.072;8.804;2023-11-21T01:45:55;10.50;99.90
8910;DHT22;4490;49.072;8.804;2023-11-21T01:48:24;10.50;99.90
8910;DHT22;4490;49.072;8.804;2023-11-21T01:50:51;10.50;99.90
8910;DHT22;4490;49.072;8.804;2023-11-21T01:53:17;10.50;99.90
8910;DHT22;4490;49.072;8.804;2023-11-21T01:55:45;10.50;99.90
8910;DHT22;4490;49.072;8.804;2023-11-21T01:58:11;10.50;99.90
8910;DHT22;4490;49.072;8.804;2023-11-21T02:00:38;10.50;99.90
8910;DHT22;4490;49.072;8.804;2023-11-21T02:03:04;10.50;99.90
8910;DHT22;4490;49.072;8.804;2023-11-21T02:05:29;10.50;99.90
8910;DHT22;4490;49.072;8.804;2023-11-21T02:07:55;10.50;99.90
8910;DHT22;4490;49.072;8.804;2023-11-21T02:10:22;10.50;99.90
8910;DHT22;4490;49.072;8.804;2023-11-21T02:12:51;10.50;99.90
8910;DHT22;4490;49.072;8.804;2023-11-21T02:15:17;10.50;99.90
8910;DHT22;4490;49.072;8.804;2023-11-21T02:17:50;10.50;99.90
8910;DHT22;4490;49.072;8.804;2023-11-21T02:20:17;10.50;99.90
8910;DHT22;4490;49.072;8.804;2023-11-21T02:22:48;10.50;99.90
8910;DHT22;4490;49.072;8.804;2023-11-21T02:25:14;10.40;99.90
8910;DHT22;4490;49.072;8.804;2023-11-21T02:27:39;10.40;99.90
8910;DHT22;4490;49.072;8.804;2023-11-21T02:30:05;10.40;99.90
8910;DHT22;4490;49.072;8.804;2023-11-21T02:32:33;10.40;99.90
8910;DHT22;4490;49.072;8.804;2023-11-21T02:34:59;10.40;99.90
8910;DHT22;4490;49.072;8.804;2023-11-21T02:37:27;10.40;99.90
8910;DHT22;4490;49.072;8.804;2023-11-21T02:39:52;10.40;99.90
8910;DHT22;4490;49.072;8.804;2023-11-21T02:42:18;10.40;99.90
8910;DHT22;4490;49.072;8.804;2023-11-21T02:44:44;10.30;99.90
8910;DHT22;4490;49.072;8.804;2023-11-21T02:47:10;10.30;99.90
8910;DHT22;4490;49.072;8.804;2023-11-21T02:49:35;10.30;99.90
8910;DHT22;4490;49.072;8.804;2023-11-21T02:52:01;10.30;99.90
8910;DHT22;4490;49.072;8.804;2023-11-21T02:54:27;10.30;99.90
8910;DHT22;4490;49.072;8.804;2023-11-21T02:56:52;10.30;99.90
8910;DHT22;4490;49.072;8.804;2023-11-21T02:59:18;10.30;99.90
8910;DHT22;4490;49.072;8.804;2023-11-21T03:01:45;10.30;99.90
8910;DHT22;4490;49.072;8.804;2023-11-21T03:04:11;10.30;99.90
8910;DHT22;4490;49.072;8.804;2023-11-21T03:06:43;10.30;99.90
8910;DHT22;4490;49.072;8.804;2023-11-21T03:09:09;10.30;99.90
8910;DHT22;4490;49.072;8.804;2023-11-21T03:11:35;10.30;99.90
8910;DHT22;4490;49.072;8.804;2023-11-21T03:14:00;10.30;99.90
8910;DHT22;4490;49.072;8.804;2023-11-21T03:16:26;10.30;99.90
8910;DHT22;4490;49.072;8.804;2023-11-21T03:18:52;10.30;99.90
8910;DHT22;4490;49.072;8.804;2023-11-21T03:21:17;10.30;99.90
8910;DHT22;4490;49.072;8.804;2023-11-21T03:23:43;10.30;99.90
8910;DHT22;4490;49.072;8.804;2023-11-21T03:26:12;10.30;99.90
8910;DHT22;4490;49.072;8.804;2023-11-21T03:28:38;10.30;99.90
8910;DHT22;4490;49.072;8.804;2023-11-21T03:31:04;10.30;99.90
8910;DHT22;4490;49.072;8.804;2023-11-21T03:33:29;10.30;99.90
8910;DHT22;4490;49.072;8.804;2023-11-21T03:35:55;10.40;99.90
8910;DHT22;4490;49.072;8.804;2023-11-21T03:38:21;10.40;99.90
8910;DHT22;4490;49.072;8.804;2023-11-21T03:40:46;10.40;99.90
8910;DHT22;4490;49.072;8.804;2023-11-21T03:43:13;10.30;99.90
8910;DHT22;4490;49.072;8.804;2023-11-21T03:45:38;10.40;99.90
8910;DHT22;4490;49.072;8.804;2023-11-21T03:48:06;10.40;99.90
8910;DHT22;4490;49.072;8.804;2023-11-21T03:50:32;10.30;99.90
8910;DHT22;4490;49.072;8.804;2023-11-21T03:52:57;10.30;99.90
8910;DHT22;4490;49.072;8.804;2023-11-21T03:55:23;10.40;99.90
8910;DHT22;4490;49.072;8.804;2023-11-21T03:57:50;10.40;99.90
8910;DHT22;4490;49.072;8.804;2023-11-21T04:00:17;10.30;99.90
8910;DHT22;4490;49.072;8.804;2023-11-21T04:02:42;10.40;99.90
8910;DHT22;4490;49.072;8.804;2023-11-21T04:05:08;10.40;99.90
8910;DHT22;4490;49.072;8.804;2023-11-21T04:07:35;10.40;99.90
8910;DHT22;4490;49.072;8.804;2023-11-21T04:10:00;10.40;99.90
8910;DHT22;4490;49.072;8.804;2023-11-21T04:12:26;10.40;99.90
8910;DHT22;4490;49.072;8.804;2023-11-21T04:14:52;10.40;99.90
8910;DHT22;4490;49.072;8.804;2023-11-21T04:17:20;10.40;99.90
8910;DHT22;4490;49.072;8.804;2023-11-21T04:19:46;10.40;99.90
8910;DHT22;4490;49.072;8.804;2023-11-21T04:22:12;10.40;99.90
8910;DHT22;4490;49.072;8.804;2023-11-21T04:24:38;10.40;99.90
8910;DHT22;4490;49.072;8.804;2023-11-21T04:27:03;10.40;99.90
8910;DHT22;4490;49.072;8.804;2023-11-21T04:29:29;10.40;99.90
8910;DHT22;4490;49.072;8.804;2023-11-21T04:31:55;10.40;99.90
8910;DHT22;4490;49.072;8.804;2023-11-21T04:34:21;10.40;99.90
8910;DHT22;4490;49.072;8.804;2023-11-21T04:36:46;10.30;99.90
8910;DHT22;4490;49.072;8.804;2023-11-21T04:39:12;10.30;99.90
8910;DHT22;4490;49.072;8.804;2023-11-21T04:41:37;10.30;99.90
8910;DHT22;4490;49.072;8.804;2023-11-21T04:44:05;10.30;99.90
8910;DHT22;4490;49.072;8.804;2023-11-21T04:46:31;10.30;99.90
8910;DHT22;4490;49.072;8.804;2023-11-21T04:48:57;10.30;99.90
8910;DHT22;4490;49.072;8.804;2023-11-21T04:51:23;10.30;99.90
8910;DHT22;4490;49.072;8.804;2023-11-21T04:53:49;10.30;99.90
8910;DHT22;4490;49.072;8.804;2023-11-21T04:56:14;10.30;99.90
8910;DHT22;4490;49.072;8.804;2023-11-21T04:58:41;10.30;99.90
8910;DHT22;4490;49.072;8.804;2023-11-21T05:01:08;10.30;99.90
8910;DHT22;4490;49.072;8.804;2023-11-21T05:03:33;10.30;99.90
8910;DHT22;4490;49.072;8.804;2023-11-21T05:06:02;10.30;99.90
8910;DHT22;4490;49.072;8.804;2023-11-21T05:08:28;10.30;99.90
8910;DHT22;4490;49.072;8.804;2023-11-21T05:10:54;10.40;99.90
8910;DHT22;4490;49.072;8.804;2023-11-21T05:13:20;10.40;99.90
8910;DHT22;4490;49.072;8.804;2023-11-21T05:15:46;10.40;99.90
8910;DHT22;4490;49.072;8.804;2023-11-21T05:18:12;10.40;99.90
8910;DHT22;4490;49.072;8.804;2023-11-21T05:20:39;10.40;99.90
8910;DHT22;4490;49.072;8.804;2023-11-21T05:23:06;10.40;99.90
8910;DHT22;4490;49.072;8.804;2023-11-21T05:25:32;10.40;99.90
8910;DHT22;4490;49.072;8.804;2023-11-21T05:27:57;10.40;99.90
8910;DHT22;4490;49.072;8.804;2023-11-21T05:30:26;10.40;99.90
8910;DHT22;4490;49.072;8.804;2023-11-21T05:32:52;10.50;99.90
8910;DHT22;4490;49.072;8.804;2023-11-21T05:35:18;10.50;99.90
8910;DHT22;4490;49.072;8.804;2023-11-21T05:37:45;10.50;99.90
8910;DHT22;4490;49.072;8.804;2023-11-21T05:40:11;10.50;99.90
8910;DHT22;4490;49.072;8.804;2023-11-21T05:42:39;10.50;99.90
8910;DHT22;4490;49.072;8.804;2023-11-21T05:45:06;10.50;99.90
8910;DHT22;4490;49.072;8.804;2023-11-21T05:47:40;10.50;99.90
8910;DHT22;4490;49.072;8.804;2023-11-21T05:50:08;10.50;99.90
8910;DHT22;4490;49.072;8.804;2023-11-21T05:52:38;10.50;99.90
8910;DHT22;4490;49.072;8.804;2023-11-21T05:55:05;10.50;99.90
8910;DHT22;4490;49.072;8.804;2023-11-21T05:57:34;10.40;99.90
8910;DHT22;4490;49.072;8.804;2023-11-21T06:00:06;10.40;99.90
8910;DHT22;4490;49.072;8.804;2023-11-21T06:02:58;10.40;99.90
8910;DHT22;4490;49.072;8.804;2023-11-21T06:05:25;10.40;99.90
8910;DHT22;4490;49.072;8.804;2023-11-21T06:07:52;10.40;99.90
8910;DHT22;4490;49.072;8.804;2023-11-21T06:10:22;10.40;99.90
8910;DHT22;4490;49.072;8.804;2023-11-21T06:12:49;10.40;99.90
8910;DHT22;4490;49.072;8.804;2023-11-21T06:15:15;10.40;99.90
8910;DHT22;4490;49.072;8.804;2023-11-21T06:17:41;10.40;99.90
8910;DHT22;4490;49.072;8.804;2023-11-21T06:20:09;10.40;99.90
8910;DHT22;4490;49.072;8.804;2023-11-21T06:22:38;10.40;99.90
8910;DHT22;4490;49.072;8.804;2023-11-21T06:25:05;10.40;99.90
8910;DHT22;4490;49.072;8.804;2023-11-21T06:27:43;10.40;99.90
8910;DHT22;4490;49.072;8.804;2023-11-21T06:30:17;10.50;99.90
8910;DHT22;4490;49.072;8.804;2023-11-21T06:32:45;10.40;99.90
8910;DHT22;4490;49.072;8.804;2023-11-21T06:35:11;10.40;99.90
8910;DHT22;4490;49.072;8.804;2023-11-21T06:37:38;10.40;99.90
8910;DHT22;4490;49.072;8.804;2023-11-21T06:40:04;10.40;99.90
8910;DHT22;4490;49.072;8.804;2023-11-21T06:42:31;10.40;99.90
8910;DHT22;4490;49.072;8.804;2023-11-21T06:44:57;10.40;99.90
8910;DHT22;4490;49.072;8.804;2023-11-21T06:47:26;10.50;99.90
8910;DHT22;4490;49.072;8.804;2023-11-21T06:49:52;10.50;99.90
8910;DHT22;4490;49.072;8.804;2023-11-21T06:52:19;10.50;99.90
8910;DHT22;4490;49.072;8.804;2023-11-21T06:54:45;10.50;99.90
8910;DHT22;4490;49.072;8.804;2023-11-21T06:57:11;10.50;99.90
8910;DHT22;4490;49.072;8.804;2023-11-21T06:59:37;10.50;99.90
8910;DHT22;4490;49.072;8.804;2023-11-21T07:02:04;10.40;99.90
8910;DHT22;4490;49.072;8.804;2023-11-21T07:04:35;10.40;99.90
8910;DHT22;4490;49.072;8.804;2023-11-21T07:07:02;10.40;99.90
8910;DHT22;4490;49.072;8.804;2023-11-21T07:09:28;10.40;99.90
8910;DHT22;4490;49.072;8.804;2023-11-21T07:11:55;10.40;99.90
8910;DHT22;4490;49.072;8.804;2023-11-21T07:14:21;10.40;99.90
8910;DHT22;4490;49.072;8.804;2023-11-21T07:16:47;10.40;99.90
8910;DHT22;4490;49.072;8.804;2023-11-21T07:19:13;10.40;99.90
8910;DHT22;4490;49.072;8.804;2023-11-21T07:21:40;10.40;99.90
8910;DHT22;4490;49.072;8.804;2023-11-21T07:24:07;10.40;99.90
8910;DHT22;4490;49.072;8.804;2023-11-21T07:26:34;10.40;99.90
8910;DHT22;4490;49.072;8.804;2023-11-21T07:29:04;10.40;99.90
8910;DHT22;4490;49.072;8.804;2023-11-21T07:31:30;10.30;99.90
8910;DHT22;4490;49.072;8.804;2023-11-21T07:33:55;10.30;99.90
8910;DHT22;4490;49.072;8.804;2023-11-21T07:36:24;10.30;99.90
8910;DHT22;4490;49.072;8.804;2023-11-21T07:38:50;10.30;99.90
8910;DHT22;4490;49.072;8.804;2023-11-21T07:41:16;10.30;99.90
8910;DHT22;4490;49.072;8.804;2023-11-21T07:43:43;10.40;99.90
8910;DHT22;4490;49.072;8.804;2023-11-21T07:46:10;10.40;99.90
8910;DHT22;4490;49.072;8.804;2023-11-21T07:48:41;10.40;99.90
8910;DHT22;4490;49.072;8.804;2023-11-21T07:51:10;10.50;99.90
8910;DHT22;4490;49.072;8.804;2023-11-21T07:53:36;10.60;99.90
8910;DHT22;4490;49.072;8.804;2023-11-21T07:56:06;10.50;99.90
8910;DHT22;4490;49.072;8.804;2023-11-21T07:58:33;10.60;99.90
8910;DHT22;4490;49.072;8.804;2023-11-21T08:00:59;10.60;99.90
8910;DHT22;4490;49.072;8.804;2023-11-21T08:03:25;10.60;99.90
8910;DHT22;4490;49.072;8.804;2023-11-21T08:05:57;10.70;99.90
8910;DHT22;4490;49.072;8.804;2023-11-21T08:08:23;10.70;99.90
8910;DHT22;4490;49.072;8.804;2023-11-21T08:10:49;10.70;99.90
8910;DHT22;4490;49.072;8.804;2023-11-21T08:13:28;10.70;99.90
8910;DHT22;4490;49.072;8.804;2023-11-21T08:15:54;10.70;99.90
8910;DHT22;4490;49.072;8.804;2023-11-21T08:18:21;10.70;99.90
8910;DHT22;4490;49.072;8.804;2023-11-21T08:20:47;10.80;99.90
8910;DHT22;4490;49.072;8.804;2023-11-21T08:23:14;10.80;99.90
8910;DHT22;4490;49.072;8.804;2023-11-21T08:25:41;10.80;99.90
8910;DHT22;4490;49.072;8.804;2023-11-21T08:28:07;10.80;99.90
8910;DHT22;4490;49.072;8.804;2023-11-21T08:30:33;10.90;99.90
8910;DHT22;4490;49.072;8.804;2023-11-21T08:33:00;10.90;99.90
8910;DHT22;4490;49.072;8.804;2023-11-21T08:35:25;10.90;99.90
8910;DHT22;4490;49.072;8.804;2023-11-21T08:37:52;10.90;99.90
8910;DHT22;4490;49.072;8.804;2023-11-21T08:40:20;10.90;99.90
8910;DHT22;4490;49.072;8.804;2023-11-21T08:42:47;10.90;99.90
8910;DHT22;4490;49.072;8.804;2023-11-21T08:45:16;10.90;99.90
8910;DHT22;4490;49.072;8.804;2023-11-21T08:47:43;10.90;99.90
8910;DHT22;4490;49.072;8.804;2023-11-21T08:50:10;11.00;99.90
8910;DHT22;4490;49.072;8.804;2023-11-21T08:52:37;11.00;99.90
8910;DHT22;4490;49.072;8.804;2023-11-21T08:55:04;11.00;99.90
8910;DHT22;4490;49.072;8.804;2023-11-21T08:57:36;11.00;99.90
8910;DHT22;4490;49.072;8.804;2023-11-21T09:00:06;11.10;99.90
8910;DHT22;4490;49.072;8.804;2023-11-21T09:02:33;11.10;99.90
8910;DHT22;4490;49.072;8.804;2023-11-21T09:05:03;11.00;99.90
8910;DHT22;4490;49.072;8.804;2023-11-21T09:07:29;11.10;99.90
8910;DHT22;4490;49.072;8.804;2023-11-21T09:09:55;11.10;99.90
8910;DHT22;4490;49.072;8.804;2023-11-21T09:12:21;11.10;99.90
8910;DHT22;4490;49.072;8.804;2023-11-21T09:14:47;11.10;99.90
8910;DHT22;4490;49.072;8.804;2023-11-21T09:17:12;11.10;99.90
8910;DHT22;4490;49.072;8.804;2023-11-21T09:19:42;11.10;99.90
8910;DHT22;4490;49.072;8.804;2023-11-21T09:22:15;11.10;99.90
8910;DHT22;4490;49.072;8.804;2023-11-21T09:24:41;11.10;99.90
8910;DHT22;4490;49.072;8.804;2023-11-21T09:27:08;11.10;99.90
8910;DHT22;4490;49.072;8.804;2023-11-21T09:29:35;11.10;99.90
8910;DHT22;4490;49.072;8.804;2023-11-21T09:32:00;11.10;99.90
8910;DHT22;4490;49.072;8.804;2023-11-21T09:34:26;11.10;99.90
8910;DHT22;4490;49.072;8.804;2023-11-21T09:36:52;11.10;99.90
8910;DHT22;4490;49.072;8.804;2023-11-21T09:39:18;11.10;99.90
8910;DHT22;4490;49.072;8.804;2023-11-21T09:41:51;11.20;99.90
8910;DHT22;4490;49.072;8.804;2023-11-21T09:44:26;11.30;99.90
8910;DHT22;4490;49.072;8.804;2023-11-21T09:46:59;11.30;99.90
8910;DHT22;4490;49.072;8.804;2023-11-21T09:49:26;11.30;99.90
8910;DHT22;4490;49.072;8.804;2023-11-21T09:51:55;11.40;99.90
8910;DHT22;4490;49.072;8.804;2023-11-21T09:54:22;11.40;99.90
8910;DHT22;4490;49.072;8.804;2023-11-21T09:56:49;11.50;99.90
8910;DHT22;4490;49.072;8.804;2023-11-21T09:59:16;11.50;99.90
8910;DHT22;4490;49.072;8.804;2023-11-21T10:01:42;11.50;99.90
8910;DHT22;4490;49.072;8.804;2023-11-21T10:04:11;11.60;99.90
8910;DHT22;4490;49.072;8.804;2023-11-21T10:06:39;11.60;99.90
8910;DHT22;4490;49.072;8.804;2023-11-21T10:09:10;11.60;99.90
8910;DHT22;4490;49.072;8.804;2023-11-21T10:11:41;11.60;99.90
8910;DHT22;4490;49.072;8.804;2023-11-21T10:14:12;11.60;99.90
8910;DHT22;4490;49.072;8.804;2023-11-21T10:16:40;11.60;99.90
8910;DHT22;4490;49.072;8.804;2023-11-21T10:19:09;11.60;99.90
8910;DHT22;4490;49.072;8.804;2023-11-21T10:21:35;11.60;99.90
8910;DHT22;4490;49.072;8.804;2023-11-21T10:24:01;11.70;99.90
8910;DHT22;4490;49.072;8.804;2023-11-21T10:26:30;11.70;99.90
8910;DHT22;4490;49.072;8.804;2023-11-21T10:28:58;11.70;99.90
8910;DHT22;4490;49.072;8.804;2023-11-21T10:31:27;11.70;99.90
8910;DHT22;4490;49.072;8.804;2023-11-21T10:33:53;11.70;99.90
8910;DHT22;4490;49.072;8.804;2023-11-21T10:36:27;11.80;99.90
8910;DHT22;4490;49.072;8.804;2023-11-21T10:38:54;11.80;99.90
8910;DHT22;4490;49.072;8.804;2023-11-21T10:41:20;11.80;99.90
8910;DHT22;4490;49.072;8.804;2023-11-21T10:43:46;11.80;99.90
8910;DHT22;4490;49.072;8.804;2023-11-21T10:46:13;11.80;99.90
8910;DHT22;4490;49.072;8.804;2023-11-21T10:48:44;11.80;99.90
8910;DHT22;4490;49.072;8.804;2023-11-21T10:51:09;11.80;99.90
8910;DHT22;4490;49.072;8.804;2023-11-21T10:53:39;11.80;99.90
8910;DHT22;4490;49.072;8.804;2023-11-21T10:56:08;11.80;99.90
8910;DHT22;4490;49.072;8.804;2023-11-21T10:58:37;11.80;99.90
8910;DHT22;4490;49.072;8.804;2023-11-21T11:01:06;11.80;99.90
8910;DHT22;4490;49.072;8.804;2023-11-21T11:03:32;11.80;99.90
8910;DHT22;4490;49.072;8.804;2023-11-21T11:06:02;11.80;99.90
8910;DHT22;4490;49.072;8.804;2023-11-21T11:08:28;11.90;99.90
8910;DHT22;4490;49.072;8.804;2023-11-21T11:10:54;11.90;99.90
8910;DHT22;4490;49.072;8.804;2023-11-21T11:13:20;11.90;99.90
8910;DHT22;4490;49.072;8.804;2023-11-21T11:15:50;11.90;99.90
8910;DHT22;4490;49.072;8.804;2023-11-21T11:18:16;11.90;99.90
8910;DHT22;4490;49.072;8.804;2023-11-21T11:20:43;11.90;99.90
8910;DHT22;4490;49.072;8.804;2023-11-21T11:28:48;12.00;99.90
8910;DHT22;4490;49.072;8.804;2023-11-21T11:34:32;12.00;99.90
8910;DHT22;4490;49.072;8.804;2023-11-21T11:37:02;12.00;99.90
8910;DHT22;4490;49.072;8.804;2023-11-21T11:39:35;11.90;99.90
8910;DHT22;4490;49.072;8.804;2023-11-21T11:42:04;11.90;99.90
8910;DHT22;4490;49.072;8.804;2023-11-21T11:47:26;12.00;99.90
8910;DHT22;4490;49.072;8.804;2023-11-21T11:50:01;11.90;99.90
8910;DHT22;4490;49.072;8.804;2023-11-21T11:52:44;11.90;99.90
8910;DHT22;4490;49.072;8.804;2023-11-21T11:55:14;11.90;99.90
8910;DHT22;4490;49.072;8.804;2023-11-21T11:57:44;11.90;99.90
8910;DHT22;4490;49.072;8.804;2023-11-21T12:02:37;11.80;99.90
8910;DHT22;4490;49.072;8.804;2023-11-21T12:05:09;11.80;99.90
8910;DHT22;4490;49.072;8.804;2023-11-21T12:08:02;11.70;99.90
8910;DHT22;4490;49.072;8.804;2023-11-21T12:10:30;11.70;99.90
8910;DHT22;4490;49.072;8.804;2023-11-21T12:13:01;11.60;99.90
8910;DHT22;4490;49.072;8.804;2023-11-21T12:15:27;11.60;99.90
8910;DHT22;4490;49.072;8.804;2023-11-21T12:17:57;11.50;99.90
8910;DHT22;4490;49.072;8.804;2023-11-21T12:20:25;11.50;99.90
8910;DHT22;4490;49.072;8.804;2023-11-21T12:22:59;11.50;99.90
8910;DHT22;4490;49.072;8.804;2023-11-21T12:25:27;11.60;99.90
8910;DHT22;4490;49.072;8.804;2023-11-21T12:27:58;11.60;99.90
8910;DHT22;4490;49.072;8.804;2023-11-21T12:30:29;11.60;99.90
8910;DHT22;4490;49.072;8.804;2023-11-21T12:32:57;11.60;99.90
8910;DHT22;4490;49.072;8.804;2023-11-21T12:35:27;11.60;99.90
8910;DHT22;4490;49.072;8.804;2023-11-21T12:37:55;11.70;99.90
8910;DHT22;4490;49.072;8.804;2023-11-21T12:40:22;11.60;99.90
8910;DHT22;4490;49.072;8.804;2023-11-21T12:42:51;11.70;99.90
8910;DHT22;4490;49.072;8.804;2023-11-21T12:45:20;11.70;99.90
8910;DHT22;4490;49.072;8.804;2023-11-21T12:47:48;11.70;99.90
8910;DHT22;4490;49.072;8.804;2023-11-21T12:50:15;11.70;99.90
8910;DHT22;4490;49.072;8.804;2023-11-21T12:52:47;11.80;99.90
8910;DHT22;4490;49.072;8.804;2023-11-21T12:55:21;11.70;99.90
8910;DHT22;4490;49.072;8.804;2023-11-21T12:57:51;11.80;99.90
8910;DHT22;4490;49.072;8.804;2023-11-21T13:00:27;11.80;99.90
8910;DHT22;4490;49.072;8.804;2023-11-21T13:02:56;11.80;99.90
8910;DHT22;4490;49.072;8.804;2023-11-21T13:05:27;11.80;99.90
8910;DHT22;4490;49.072;8.804;2023-11-21T13:07:54;11.80;99.90
8910;DHT22;4490;49.072;8.804;2023-11-21T13:10:26;11.80;99.90
8910;DHT22;4490;49.072;8.804;2023-11-21T13:12:55;11.80;99.90
8910;DHT22;4490;49.072;8.804;2023-11-21T13:15:32;11.70;99.90
8910;DHT22;4490;49.072;8.804;2023-11-21T13:17:58;11.70;99.90
8910;DHT22;4490;49.072;8.804;2023-11-21T13:20:25;11.70;99.90
8910;DHT22;4490;49.072;8.804;2023-11-21T13:22:57;11.70;99.90
8910;DHT22;4490;49.072;8.804;2023-11-21T13:25:26;11.70;99.90
8910;DHT22;4490;49.072;8.804;2023-11-21T13:27:57;11.70;99.90
8910;DHT22;4490;49.072;8.804;2023-11-21T13:30:25;11.70;99.90
8910;DHT22;4490;49.072;8.804;2023-11-21T13:33:00;11.70;99.90
8910;DHT22;4490;49.072;8.804;2023-11-21T13:35:35;11.70;99.90
8910;DHT22;4490;49.072;8.804;2023-11-21T13:38:06;11.70;99.90
8910;DHT22;4490;49.072;8.804;2023-11-21T13:40:33;11.70;99.90
8910;DHT22;4490;49.072;8.804;2023-11-21T13:43:05;11.70;99.90
8910;DHT22;4490;49.072;8.804;2023-11-21T13:45:38;11.80;99.90
8910;DHT22;4490;49.072;8.804;2023-11-21T13:48:08;11.80;99.90
8910;DHT22;4490;49.072;8.804;2023-11-21T13:50:36;11.80;99.90
8910;DHT22;4490;49.072;8.804;2023-11-21T13:53:03;11.90;99.90
8910;DHT22;4490;49.072;8.804;2023-11-21T13:55:36;11.90;99.90
8910;DHT22;4490;49.072;8.804;2023-11-21T13:58:03;11.90;99.90
8910;DHT22;4490;49.072;8.804;2023-11-21T14:00:30;11.90;99.90
8910;DHT22;4490;49.072;8.804;2023-11-21T14:03:09;11.90;99.90
8910;DHT22;4490;49.072;8.804;2023-11-21T14:05:43;11.90;99.90
8910;DHT22;4490;49.072;8.804;2023-11-21T14:08:10;11.90;99.90
8910;DHT22;4490;49.072;8.804;2023-11-21T14:10:37;11.90;99.90
8910;DHT22;4490;49.072;8.804;2023-11-21T14:13:09;11.90;99.90
8910;DHT22;4490;49.072;8.804;2023-11-21T14:15:39;11.90;99.90
8910;DHT22;4490;49.072;8.804;2023-11-21T14:18:09;11.90;99.90
8910;DHT22;4490;49.072;8.804;2023-11-21T14:20:40;11.90;99.90
8910;DHT22;4490;49.072;8.804;2023-11-21T14:23:06;11.90;99.90
8910;DHT22;4490;49.072;8.804;2023-11-21T14:25:35;11.90;99.90
8910;DHT22;4490;49.072;8.804;2023-11-21T14:28:03;11.90;99.90
8910;DHT22;4490;49.072;8.804;2023-11-21T14:30:29;11.90;99.90
8910;DHT22;4490;49.072;8.804;2023-11-21T14:32:58;11.90;99.90
8910;DHT22;4490;49.072;8.804;2023-11-21T14:35:23;11.90;99.90
8910;DHT22;4490;49.072;8.804;2023-11-21T14:37:49;11.90;99.90
8910;DHT22;4490;49.072;8.804;2023-11-21T14:40:15;11.90;99.90
8910;DHT22;4490;49.072;8.804;2023-11-21T14:42:42;11.90;99.90
8910;DHT22;4490;49.072;8.804;2023-11-21T14:45:09;11.90;99.90
8910;DHT22;4490;49.072;8.804;2023-11-21T14:47:37;11.80;99.90
8910;DHT22;4490;49.072;8.804;2023-11-21T14:50:04;11.80;99.90
8910;DHT22;4490;49.072;8.804;2023-11-21T14:52:49;11.80;99.90
8910;DHT22;4490;49.072;8.804;2023-11-21T14:55:24;11.80;99.90
8910;DHT22;4490;49.072;8.804;2023-11-21T14:58:09;11.80;99.90
8910;DHT22;4490;49.072;8.804;2023-11-21T15:00:39;11.80;99.90
8910;DHT22;4490;49.072;8.804;2023-11-21T15:03:10;11.70;99.90
8910;DHT22;4490;49.072;8.804;2023-11-21T15:05:47;11.70;99.90
8910;DHT22;4490;49.072;8.804;2023-11-21T15:08:14;11.70;99.90
8910;DHT22;4490;49.072;8.804;2023-11-21T15:10:50;11.70;99.90
8910;DHT22;4490;49.072;8.804;2023-11-21T15:13:20;11.60;99.90
8910;DHT22;4490;49.072;8.804;2023-11-21T15:15:47;11.70;99.90
8910;DHT22;4490;49.072;8.804;2023-11-21T15:18:13;11.60;99.90
8910;DHT22;4490;49.072;8.804;2023-11-21T15:20:40;11.60;99.90
8910;DHT22;4490;49.072;8.804;2023-11-21T15:23:06;11.60;99.90
8910;DHT22;4490;49.072;8.804;2023-11-21T15:25:32;11.60;99.90
8910;DHT22;4490;49.072;8.804;2023-11-21T15:27:59;11.50;99.90
8910;DHT22;4490;49.072;8.804;2023-11-21T15:30:26;11.50;99.90
8910;DHT22;4490;49.072;8.804;2023-11-21T15:32:52;11.50;99.90
8910;DHT22;4490;49.072;8.804;2023-11-21T15:35:20;11.40;99.90
8910;DHT22;4490;49.072;8.804;2023-11-21T15:37:46;11.40;99.90
8910;DHT22;4490;49.072;8.804;2023-11-21T15:40:12;11.40;99.90
8910;DHT22;4490;49.072;8.804;2023-11-21T15:42:40;11.40;99.90
8910;DHT22;4490;49.072;8.804;2023-11-21T15:45:06;11.30;99.90
8910;DHT22;4490;49.072;8.804;2023-11-21T15:47:34;11.30;99.90
8910;DHT22;4490;49.072;8.804;2023-11-21T15:50:00;11.30;99.90
8910;DHT22;4490;49.072;8.804;2023-11-21T15:52:26;11.30;99.90
8910;DHT22;4490;49.072;8.804;2023-11-21T15:54:54;11.20;99.90
8910;DHT22;4490;49.072;8.804;2023-11-21T15:57:19;11.20;99.90
8910;DHT22;4490;49.072;8.804;2023-11-21T15:59:47;11.20;99.90
8910;DHT22;4490;49.072;8.804;2023-11-21T16:02:13;11.20;99.90
8910;DHT22;4490;49.072;8.804;2023-11-21T16:04:41;11.10;99.90
8910;DHT22;4490;49.072;8.804;2023-11-21T16:07:08;11.10;99.90
8910;DHT22;4490;49.072;8.804;2023-11-21T16:09:35;11.10;99.90
8910;DHT22;4490;49.072;8.804;2023-11-21T16:12:05;11.10;99.90
8910;DHT22;4490;49.072;8.804;2023-11-21T16:14:34;11.10;99.90
8910;DHT22;4490;49.072;8.804;2023-11-21T16:17:02;11.00;99.90
8910;DHT22;4490;49.072;8.804;2023-11-21T16:19:28;11.00;99.90